Holton, Michigan
Current Conditions -  °F | °C
As of 2:30 PM on Thursday 23 Oct 2014 (Local Time) from KFFX Reporting Station
Broken Clouds Broken Clouds  
Wind Chill: 55°   Ceiling: 2800
Heat Index: 55°   Visibility: 10mi
Dew Point: 40°   Wind: 9mph
Humidity: 58%   Direction: 230°SW
Pressure: 30.16"   Gusts: NA
Location:  43.41°N, 86.08°W
Report Text: KFFX 231830Z AUTO 23008KT 10SM BKN028 13/05 A3016 RMK AO2 T01250045
Loading
Personal Weather Stations






























Interactive Weather Map
Tropical Storm Tracking
New forecast layout! Learn more

10-Day Weather Forecast

Advertisements
Track Severe Weather on mobile